createdAt,value
2018-08-03T00:02:10.855Z,59.80
2018-08-03T00:05:35.547Z,59.60
2018-08-03T00:09:02.484Z,60.70
2018-08-03T00:12:27.102Z,61.20
2018-08-03T00:15:51.579Z,61.20
2018-08-03T00:19:16.044Z,61.80
2018-08-03T00:22:40.491Z,62.00
2018-08-03T00:26:04.971Z,62.10
2018-08-03T00:29:29.411Z,61.90
2018-08-03T00:32:53.895Z,62.20
2018-08-03T00:36:18.366Z,62.20
2018-08-03T00:39:42.814Z,62.90
2018-08-03T00:43:07.423Z,63.30
2018-08-03T00:46:31.860Z,63.80
2018-08-03T00:49:56.364Z,63.20
2018-08-03T00:56:44.993Z,63.70
2018-08-03T01:00:09.409Z,64.30
2018-08-03T01:03:33.887Z,64.60
2018-08-03T01:06:58.402Z,64.10
2018-08-03T01:10:22.832Z,65.10
2018-08-03T01:13:47.278Z,65.00
2018-08-03T01:17:11.698Z,65.10
2018-08-03T01:20:36.124Z,65.30
2018-08-03T01:24:00.606Z,65.40
2018-08-03T01:27:25.058Z,66.00
2018-08-03T01:30:49.696Z,66.10
2018-08-03T01:34:14.208Z,65.40
2018-08-03T01:37:38.671Z,65.10
2018-08-03T01:41:03.345Z,65.70
2018-08-03T01:44:27.814Z,65.90
2018-08-03T01:47:52.266Z,66.50
2018-08-03T01:54:40.851Z,66.90
2018-08-03T01:58:05.295Z,66.10
2018-08-03T02:01:29.726Z,66.20
2018-08-03T02:04:54.163Z,66.40
2018-08-03T02:08:18.799Z,66.50
2018-08-03T02:11:43.256Z,66.40
2018-08-03T02:15:08.210Z,66.20
2018-08-03T02:18:32.722Z,66.40
2018-08-03T02:21:57.262Z,66.70
2018-08-03T02:25:21.665Z,66.70
2018-08-03T02:28:46.080Z,66.90
2018-08-03T02:32:11.134Z,67.40
2018-08-03T02:35:35.595Z,68.10
2018-08-03T02:39:00.027Z,67.80
2018-08-03T02:42:24.481Z,67.70
2018-08-03T02:45:48.953Z,68.00
2018-08-03T02:49:13.416Z,68.10
2018-08-03T02:52:37.871Z,68.10
2018-08-03T02:56:02.314Z,68.60
2018-08-03T02:59:26.749Z,68.40
2018-08-03T03:02:51.189Z,69.40
2018-08-03T03:06:15.609Z,69.10
2018-08-03T03:09:40.061Z,69.10
2018-08-03T03:13:04.475Z,69.60
2018-08-03T03:16:28.876Z,69.60
2018-08-03T03:19:53.451Z,69.70
2018-08-03T03:23:17.911Z,70.10
2018-08-03T03:26:42.743Z,70.20
2018-08-03T03:30:08.845Z,70.10
2018-08-03T03:33:33.316Z,70.30
2018-08-03T03:36:57.743Z,70.90
2018-08-03T03:40:22.302Z,71.80
2018-08-03T03:43:46.716Z,71.90
2018-08-03T03:47:11.162Z,72.10
2018-08-03T03:50:35.669Z,72.40
2018-08-03T03:54:00.260Z,72.10
2018-08-03T03:57:24.692Z,72.20
2018-08-03T04:00:49.329Z,72.20
2018-08-03T04:04:13.745Z,71.70
2018-08-03T04:07:38.175Z,72.70
2018-08-03T04:11:02.773Z,71.90
2018-08-03T04:14:27.147Z,72.50
2018-08-03T04:17:51.556Z,72.20
2018-08-03T04:21:15.976Z,72.40
2018-08-03T04:24:40.400Z,72.40
2018-08-03T04:28:04.889Z,72.60
2018-08-03T04:31:29.317Z,72.30
2018-08-03T04:34:53.729Z,72.20
2018-08-03T04:38:18.161Z,73.30
2018-08-03T04:41:42.570Z,72.70
2018-08-03T04:45:07.058Z,72.90
2018-08-03T04:48:31.547Z,73.50
2018-08-03T04:51:55.955Z,73.00
2018-08-03T04:55:20.386Z,73.10
2018-08-03T04:58:44.833Z,72.90
2018-08-03T05:02:10.756Z,73.60
2018-08-03T05:05:35.265Z,73.30
2018-08-03T05:08:59.704Z,73.30
2018-08-03T05:12:24.171Z,73.40
2018-08-03T05:15:48.693Z,73.10
2018-08-03T05:19:13.102Z,73.60
2018-08-03T05:22:37.604Z,73.20
2018-08-03T05:26:02.064Z,73.50
2018-08-03T05:29:26.458Z,73.50
2018-08-03T05:32:50.877Z,73.10
2018-08-03T05:36:15.447Z,73.50
2018-08-03T05:39:39.870Z,73.30
2018-08-03T05:43:04.335Z,73.10
2018-08-03T05:46:28.767Z,72.10
2018-08-03T05:49:53.298Z,71.70
2018-08-03T05:53:17.710Z,71.70
2018-08-03T05:56:42.147Z,71.40
2018-08-03T06:00:07.195Z,70.80
2018-08-03T06:03:31.627Z,69.80
2018-08-03T06:06:56.041Z,69.10
2018-08-03T06:10:20.496Z,69.20
2018-08-03T06:13:44.950Z,68.50
2018-08-03T06:17:09.450Z,68.80
2018-08-03T06:20:33.885Z,68.40
2018-08-03T06:23:58.386Z,67.10
2018-08-03T06:27:22.952Z,66.50
2018-08-03T06:30:47.492Z,67.70
2018-08-03T06:34:11.987Z,67.40
2018-08-03T06:37:36.810Z,65.30
2018-08-03T06:41:01.320Z,64.90
2018-08-03T06:44:25.710Z,65.60
2018-08-03T06:47:50.104Z,64.40
2018-08-03T06:51:14.515Z,64.80
2018-08-03T06:54:38.920Z,63.80
2018-08-03T06:58:03.371Z,62.90
2018-08-03T07:01:27.799Z,64.20
2018-08-03T07:04:52.386Z,62.30
2018-08-03T07:08:16.817Z,62.00
2018-08-03T07:11:41.330Z,60.90
2018-08-03T07:15:06.137Z,61.20
2018-08-03T07:18:30.602Z,60.90
2018-08-03T07:21:55.079Z,60.00
2018-08-03T07:25:21.302Z,60.30
2018-08-03T07:28:45.900Z,59.50
2018-08-03T07:32:10.317Z,59.70
2018-08-03T07:35:34.754Z,59.50
2018-08-03T07:38:59.192Z,58.80
2018-08-03T07:42:23.687Z,59.10
2018-08-03T07:45:48.206Z,58.90
2018-08-03T07:49:12.645Z,58.60
2018-08-03T07:52:37.199Z,57.50
2018-08-03T07:56:01.507Z,57.40
2018-08-03T07:59:25.953Z,57.70
2018-08-03T08:02:50.560Z,57.00
2018-08-03T08:06:15.003Z,56.70
2018-08-03T08:09:39.559Z,56.40
2018-08-03T08:13:03.933Z,57.70
2018-08-03T08:16:28.380Z,57.30
2018-08-03T08:19:52.848Z,56.80
2018-08-03T08:23:17.329Z,57.00
2018-08-03T08:26:41.823Z,56.20
2018-08-03T08:30:07.230Z,55.40
2018-08-03T08:33:31.681Z,55.30
2018-08-03T08:36:56.176Z,54.80
2018-08-03T08:40:20.576Z,55.60
2018-08-03T08:43:45.060Z,54.50
2018-08-03T08:47:10.006Z,54.20
2018-08-03T08:50:34.467Z,54.20
2018-08-03T08:53:58.896Z,53.00
2018-08-03T08:57:23.410Z,54.20
2018-08-03T09:00:47.864Z,53.10
2018-08-03T09:04:12.359Z,51.90
2018-08-03T09:07:36.875Z,51.10
2018-08-03T09:11:01.261Z,52.30
2018-08-03T09:14:25.798Z,51.50
2018-08-03T09:17:50.245Z,51.50
2018-08-03T09:21:14.792Z,51.10
2018-08-03T09:24:39.298Z,50.00
2018-08-03T09:28:03.664Z,50.30
2018-08-03T09:31:28.139Z,50.50
2018-08-03T09:34:52.628Z,49.00
2018-08-03T09:38:17.090Z,48.30
2018-08-03T09:41:41.535Z,48.40
2018-08-03T09:45:06.460Z,48.00
2018-08-03T09:48:30.999Z,46.60
2018-08-03T09:51:55.476Z,43.80
2018-08-03T09:55:19.936Z,44.30
2018-08-03T09:58:44.418Z,43.10
2018-08-03T10:02:08.928Z,42.50
2018-08-03T10:05:33.428Z,41.20
2018-08-03T10:08:57.851Z,41.90
2018-08-03T10:12:22.263Z,40.90
2018-08-03T10:15:46.689Z,40.70
2018-08-03T10:19:11.127Z,39.60
2018-08-03T10:22:35.556Z,39.80
2018-08-03T10:25:59.951Z,37.90
2018-08-03T10:29:24.420Z,34.70
2018-08-03T10:32:49.207Z,33.10
2018-08-03T10:36:20.345Z,35.80
2018-08-03T10:39:44.887Z,34.10
2018-08-03T10:43:09.339Z,33.10
2018-08-03T10:46:33.726Z,34.00
2018-08-03T10:49:58.459Z,32.60
2018-08-03T10:53:22.919Z,29.50
2018-08-03T10:56:47.633Z,29.10
2018-08-03T11:00:22.154Z,30.60
2018-08-03T11:03:46.605Z,28.80
2018-08-03T11:07:11.016Z,29.40
2018-08-03T11:10:36.471Z,28.40
2018-08-03T11:14:01.019Z,28.90
2018-08-03T11:17:25.407Z,29.30
2018-08-03T11:20:49.918Z,29.20
2018-08-03T11:24:15.997Z,29.60
2018-08-03T11:27:40.596Z,29.00
2018-08-03T11:31:06.558Z,28.50
2018-08-03T11:34:31.767Z,28.40
2018-08-03T11:37:56.716Z,28.40
2018-08-03T11:41:22.894Z,29.90
2018-08-03T11:44:48.463Z,28.10
2018-08-03T11:48:12.844Z,27.90
2018-08-03T11:51:38.016Z,28.50
2018-08-03T11:55:03.300Z,28.20
2018-08-03T11:58:27.916Z,29.20
2018-08-03T12:01:52.396Z,28.50
2018-08-03T12:05:16.832Z,28.10
2018-08-03T12:08:41.253Z,27.50
2018-08-03T12:12:05.714Z,27.20
2018-08-03T12:15:30.308Z,28.80
2018-08-03T12:18:54.747Z,26.90
2018-08-03T12:22:19.848Z,27.10
2018-08-03T12:25:44.510Z,27.20
2018-08-03T12:29:08.909Z,27.50
2018-08-03T12:32:33.368Z,26.80
2018-08-03T12:35:57.780Z,27.10
2018-08-03T12:39:22.307Z,28.30
2018-08-03T12:42:46.786Z,26.20
2018-08-03T12:46:11.219Z,25.90
2018-08-03T12:49:35.724Z,25.40
2018-08-03T12:53:00.213Z,24.80
2018-08-03T12:56:24.900Z,24.50
2018-08-03T12:59:49.342Z,22.80
2018-08-03T13:03:13.755Z,22.50
2018-08-03T13:06:39.645Z,22.50
2018-08-03T13:13:28.199Z,22.80
2018-08-03T13:16:52.621Z,22.60
2018-08-03T13:23:53.360Z,20.70
2018-08-03T13:27:18.205Z,21.40
2018-08-03T13:30:42.630Z,21.90
2018-08-03T13:34:07.209Z,24.10
2018-08-03T13:37:31.667Z,25.50
2018-08-03T13:40:56.098Z,26.10
2018-08-03T13:44:20.506Z,27.00
2018-08-03T13:47:44.928Z,27.00
2018-08-03T13:51:09.353Z,28.30
2018-08-03T13:54:33.793Z,28.00
2018-08-03T13:57:58.290Z,26.70
2018-08-03T14:01:44.394Z,22.80
2018-08-03T14:05:10.238Z,23.20
2018-08-03T14:08:35.023Z,24.30
2018-08-03T14:11:59.467Z,23.90
2018-08-03T14:18:48.324Z,20.90
2018-08-03T14:22:12.925Z,20.70
2018-08-03T14:25:37.241Z,21.20
2018-08-03T14:29:01.641Z,20.30
2018-08-03T14:32:26.077Z,20.60
2018-08-03T14:35:50.507Z,19.00
2018-08-03T14:39:14.937Z,18.20
2018-08-03T14:42:39.354Z,18.60
2018-08-03T14:46:03.770Z,18.40
2018-08-03T14:49:28.160Z,19.10
2018-08-03T14:52:52.636Z,19.10
2018-08-03T14:56:17.068Z,19.50
2018-08-03T14:59:41.467Z,19.60
2018-08-03T15:03:05.937Z,18.60
2018-08-03T15:06:30.360Z,18.30
2018-08-03T15:09:55.462Z,17.90
2018-08-03T15:13:19.875Z,17.60
2018-08-03T15:16:44.288Z,16.50
2018-08-03T15:20:09.658Z,16.40
2018-08-03T15:23:34.068Z,18.00
2018-08-03T15:26:58.467Z,17.80
2018-08-03T15:30:22.926Z,17.30
2018-08-03T15:33:47.354Z,15.50
2018-08-03T15:37:11.787Z,16.10
2018-08-03T15:40:36.306Z,16.40
2018-08-03T15:44:00.847Z,17.70
2018-08-03T15:47:25.387Z,16.50
2018-08-03T15:50:49.770Z,16.30
2018-08-03T15:54:14.169Z,15.90
2018-08-03T15:57:38.558Z,15.70
2018-08-03T16:01:02.956Z,17.10
2018-08-03T16:04:27.386Z,16.20
2018-08-03T16:07:51.783Z,16.50
2018-08-03T16:11:16.180Z,16.30
2018-08-03T16:14:40.630Z,16.20
2018-08-03T16:18:05.747Z,16.40
2018-08-03T16:21:30.126Z,16.80
2018-08-03T16:24:54.583Z,16.60
2018-08-03T16:28:18.983Z,17.20
2018-08-03T16:31:43.439Z,19.30
2018-08-03T16:35:09.027Z,21.30
2018-08-03T16:38:33.433Z,21.00
2018-08-03T16:41:57.878Z,21.00
2018-08-03T16:45:22.384Z,21.60
2018-08-03T16:48:46.787Z,20.70
2018-08-03T16:52:11.242Z,20.50
2018-08-03T16:55:35.638Z,20.60
2018-08-03T16:59:00.123Z,20.40
2018-08-03T17:02:24.528Z,21.30
2018-08-03T17:06:08.750Z,21.20
2018-08-03T17:09:33.227Z,23.20
2018-08-03T17:12:57.641Z,24.30
2018-08-03T17:16:22.093Z,25.10
2018-08-03T17:19:46.487Z,26.40
2018-08-03T17:23:10.925Z,27.40
2018-08-03T17:26:35.359Z,26.80
2018-08-03T17:29:59.819Z,26.70
2018-08-03T17:33:24.812Z,27.10
2018-08-03T17:36:52.614Z,29.20
2018-08-03T17:40:17.600Z,29.80
2018-08-03T17:43:42.074Z,31.30
2018-08-03T17:47:06.481Z,32.20
2018-08-03T17:50:30.905Z,30.90
2018-08-03T17:53:55.400Z,33.40
2018-08-03T17:57:19.949Z,36.70
2018-08-03T18:00:44.558Z,38.20
2018-08-03T18:04:09.050Z,36.70
2018-08-03T18:07:33.585Z,37.40
2018-08-03T18:10:58.788Z,37.10
2018-08-03T18:14:23.206Z,36.40
2018-08-03T18:21:11.736Z,37.90
2018-08-03T18:24:36.465Z,40.70
2018-08-03T18:28:01.136Z,38.00
2018-08-03T18:31:25.628Z,40.90
2018-08-03T18:34:50.068Z,36.70
2018-08-03T18:38:14.518Z,41.50
2018-08-03T18:41:39.157Z,43.00
2018-08-03T18:45:03.709Z,41.90
2018-08-03T18:48:28.330Z,38.90
2018-08-03T18:51:52.875Z,44.10
2018-08-03T18:55:17.364Z,36.80
2018-08-03T18:58:41.810Z,39.10
2018-08-03T19:02:06.461Z,42.60
2018-08-03T19:05:30.892Z,42.40
2018-08-03T19:08:55.327Z,42.30
2018-08-03T19:12:19.771Z,42.60
2018-08-03T19:15:44.249Z,44.40
2018-08-03T19:19:08.667Z,43.80
2018-08-03T19:22:33.089Z,42.20
2018-08-03T19:25:57.578Z,42.60
2018-08-03T19:29:22.966Z,42.30
2018-08-03T19:36:13.456Z,42.50
2018-08-03T19:39:39.668Z,42.60
2018-08-03T19:43:04.273Z,43.50
2018-08-03T19:46:29.363Z,43.20
2018-08-03T19:49:55.512Z,41.50
2018-08-03T19:53:21.265Z,42.90
2018-08-03T19:56:46.030Z,41.90
2018-08-03T20:00:13.783Z,42.60
2018-08-03T20:03:39.759Z,43.60
2018-08-03T20:07:04.435Z,43.30
2018-08-03T20:10:30.685Z,44.20
2018-08-03T20:13:55.188Z,43.50
2018-08-03T20:17:19.699Z,44.80
2018-08-03T20:20:45.567Z,44.60
2018-08-03T20:24:11.188Z,45.00
2018-08-03T20:27:37.934Z,44.90
2018-08-03T20:31:04.095Z,44.10
2018-08-03T20:34:29.558Z,44.60
2018-08-03T20:37:53.995Z,44.10
2018-08-03T20:41:19.574Z,43.90
2018-08-03T20:44:45.107Z,44.40
2018-08-03T20:48:10.068Z,44.70
2018-08-03T20:51:35.443Z,44.70
2018-08-03T20:55:01.196Z,43.70
2018-08-03T20:58:28.575Z,44.80
2018-08-03T21:01:56.043Z,43.70
2018-08-03T21:05:21.947Z,44.80
2018-08-03T21:08:47.403Z,44.70
2018-08-03T21:12:12.706Z,43.70
2018-08-03T21:15:39.604Z,44.80
2018-08-03T21:19:04.866Z,45.30
2018-08-03T21:22:29.325Z,45.30
2018-08-03T21:25:53.752Z,44.80
2018-08-03T21:29:18.177Z,45.70
2018-08-03T21:32:42.705Z,43.60
2018-08-03T21:36:07.239Z,43.60
2018-08-03T21:39:31.635Z,43.70
2018-08-03T21:42:56.026Z,44.00
2018-08-03T21:46:20.472Z,44.50
2018-08-03T21:49:44.923Z,44.50
2018-08-03T21:53:09.364Z,45.20
2018-08-03T21:56:34.437Z,44.60
2018-08-03T21:59:59.006Z,44.40
2018-08-03T22:03:24.758Z,44.80
2018-08-03T22:06:55.390Z,46.00
2018-08-03T22:10:24.906Z,46.20
2018-08-03T22:13:49.378Z,46.90
2018-08-03T22:17:13.823Z,46.70
2018-08-03T22:20:38.307Z,46.50
2018-08-03T22:24:02.753Z,46.40
2018-08-03T22:27:27.227Z,46.70
2018-08-03T22:30:52.325Z,47.30
2018-08-03T22:34:16.768Z,47.50
2018-08-03T22:37:41.198Z,46.90
2018-08-03T22:41:09.497Z,47.70
2018-08-03T22:44:37.600Z,47.90
2018-08-03T22:48:02.077Z,48.10
2018-08-03T22:51:28.617Z,47.90
2018-08-03T22:55:02.765Z,48.60
2018-08-03T22:58:27.588Z,48.80
2018-08-03T23:01:52.009Z,49.90
2018-08-03T23:05:16.750Z,49.60
2018-08-03T23:08:41.209Z,49.60
2018-08-03T23:12:07.871Z,50.20
2018-08-03T23:15:32.301Z,50.40
2018-08-03T23:18:56.700Z,50.60
2018-08-03T23:22:22.344Z,50.60
2018-08-03T23:25:46.923Z,51.50
2018-08-03T23:29:13.065Z,51.00
2018-08-03T23:32:40.034Z,50.80
2018-08-03T23:36:04.686Z,51.20
2018-08-03T23:39:29.189Z,51.30
2018-08-03T23:42:57.314Z,51.60
2018-08-03T23:46:21.756Z,51.60
2018-08-03T23:49:46.289Z,51.50
2018-08-03T23:53:10.760Z,51.70
2018-08-03T23:56:35.208Z,51.80
2018-08-03T23:59:59.616Z,51.90
